Airport Information

KTTD - Portland Troutdale Airport

KTTD 251053Z AUTO 09018G26KT 10SM CLR 10/03 A2998 RMK AO2 PK WND 10026/1051 SLP153 T01000028


  • General Information

  • Coordinates: N 45°32'57"/ W 122°24'4"
  • Location: N/A
  • Surveyed Elevation: 39 MSL

Operations

Flow Name Active Runways Conditions

Green background denotes normal operations.


Common Frequencies

Callsign Frequency Position Name

More at the Document Center


Charts

Name Description Cycle
BLUE LAKE THREE Page 1 1903
Name Description Cycle
HELNS SIX Page 1 1903
OCITY TWO Page 1 1903